sensor_id;sensor_type;location;lat;lon;timestamp;temperature;humidity
56729;DHT22;42612;52.232;7.560;2023-02-26T00:01:15;4.90;55.80
56729;DHT22;42612;52.232;7.560;2023-02-26T00:03:43;4.80;55.70
56729;DHT22;42612;52.232;7.560;2023-02-26T00:06:13;4.80;55.80
56729;DHT22;42612;52.232;7.560;2023-02-26T00:08:39;4.80;56.00
56729;DHT22;42612;52.232;7.560;2023-02-26T00:11:08;4.80;55.90
56729;DHT22;42612;52.232;7.560;2023-02-26T00:13:36;4.80;55.90
56729;DHT22;42612;52.232;7.560;2023-02-26T00:16:09;4.70;55.80
56729;DHT22;42612;52.232;7.560;2023-02-26T00:18:49;4.70;56.00
56729;DHT22;42612;52.232;7.560;2023-02-26T00:21:20;4.70;56.00
56729;DHT22;42612;52.232;7.560;2023-02-26T00:23:47;4.70;56.10
56729;DHT22;42612;52.232;7.560;2023-02-26T00:26:13;4.70;56.10
56729;DHT22;42612;52.232;7.560;2023-02-26T00:28:39;4.70;56.00
56729;DHT22;42612;52.232;7.560;2023-02-26T00:31:05;4.70;56.10
56729;DHT22;42612;52.232;7.560;2023-02-26T00:33:32;4.70;56.30
56729;DHT22;42612;52.232;7.560;2023-02-26T00:36:07;4.70;56.30
56729;DHT22;42612;52.232;7.560;2023-02-26T00:38:37;4.80;56.40
56729;DHT22;42612;52.232;7.560;2023-02-26T00:41:04;4.80;56.50
56729;DHT22;42612;52.232;7.560;2023-02-26T00:43:32;4.80;56.60
56729;DHT22;42612;52.232;7.560;2023-02-26T00:46:14;4.80;56.50
56729;DHT22;42612;52.232;7.560;2023-02-26T00:49:02;4.90;56.60
56729;DHT22;42612;52.232;7.560;2023-02-26T00:51:55;4.90;56.20
56729;DHT22;42612;52.232;7.560;2023-02-26T00:54:28;4.90;56.10
56729;DHT22;42612;52.232;7.560;2023-02-26T00:56:56;4.90;56.00
56729;DHT22;42612;52.232;7.560;2023-02-26T00:59:23;4.90;56.00
56729;DHT22;42612;52.232;7.560;2023-02-26T01:01:50;4.90;56.00
56729;DHT22;42612;52.232;7.560;2023-02-26T01:04:19;4.90;55.90
56729;DHT22;42612;52.232;7.560;2023-02-26T01:06:52;4.80;55.80
56729;DHT22;42612;52.232;7.560;2023-02-26T01:09:26;4.80;55.60
56729;DHT22;42612;52.232;7.560;2023-02-26T01:11:56;4.80;55.50
56729;DHT22;42612;52.232;7.560;2023-02-26T01:14:26;4.70;55.40
56729;DHT22;42612;52.232;7.560;2023-02-26T01:17:02;4.70;55.40
56729;DHT22;42612;52.232;7.560;2023-02-26T01:19:43;4.60;55.30
56729;DHT22;42612;52.232;7.560;2023-02-26T01:22:59;4.50;55.30
56729;DHT22;42612;52.232;7.560;2023-02-26T01:28:22;4.40;55.60
56729;DHT22;42612;52.232;7.560;2023-02-26T01:30:50;4.30;55.70
56729;DHT22;42612;52.232;7.560;2023-02-26T01:36:07;4.30;55.90
56729;DHT22;42612;52.232;7.560;2023-02-26T01:44:34;4.20;55.90
56729;DHT22;42612;52.232;7.560;2023-02-26T01:47:18;4.20;55.90
56729;DHT22;42612;52.232;7.560;2023-02-26T01:49:46;4.20;56.00
56729;DHT22;42612;52.232;7.560;2023-02-26T01:53:17;4.10;56.00
56729;DHT22;42612;52.232;7.560;2023-02-26T01:55:35;4.10;56.10
56729;DHT22;42612;52.232;7.560;2023-02-26T01:58:02;4.10;56.00
56729;DHT22;42612;52.232;7.560;2023-02-26T02:00:29;4.10;55.90
56729;DHT22;42612;52.232;7.560;2023-02-26T02:02:55;4.10;55.90
56729;DHT22;42612;52.232;7.560;2023-02-26T02:05:33;4.10;55.90
56729;DHT22;42612;52.232;7.560;2023-02-26T02:08:04;4.00;55.70
56729;DHT22;42612;52.232;7.560;2023-02-26T02:10:30;4.00;55.80
56729;DHT22;42612;52.232;7.560;2023-02-26T02:15:39;4.00;55.90
56729;DHT22;42612;52.232;7.560;2023-02-26T02:24:03;3.90;55.80
56729;DHT22;42612;52.232;7.560;2023-02-26T02:26:55;3.90;55.80
56729;DHT22;42612;52.232;7.560;2023-02-26T02:40:35;3.90;56.10
56729;DHT22;42612;52.232;7.560;2023-02-26T02:43:15;3.90;56.30
56729;DHT22;42612;52.232;7.560;2023-02-26T02:45:46;3.90;56.30
56729;DHT22;42612;52.232;7.560;2023-02-26T02:48:26;4.00;56.20
56729;DHT22;42612;52.232;7.560;2023-02-26T02:51:16;4.00;55.90
56729;DHT22;42612;52.232;7.560;2023-02-26T02:56:52;4.00;55.70
56729;DHT22;42612;52.232;7.560;2023-02-26T02:59:34;4.00;55.50
56729;DHT22;42612;52.232;7.560;2023-02-26T03:04:47;4.10;55.60
56729;DHT22;42612;52.232;7.560;2023-02-26T03:07:13;4.00;54.90
56729;DHT22;42612;52.232;7.560;2023-02-26T03:09:40;3.90;54.90
56729;DHT22;42612;52.232;7.560;2023-02-26T03:12:06;3.90;54.90
56729;DHT22;42612;52.232;7.560;2023-02-26T03:14:32;3.80;55.10
56729;DHT22;42612;52.232;7.560;2023-02-26T03:17:07;3.70;55.30
56729;DHT22;42612;52.232;7.560;2023-02-26T03:25:31;3.70;55.60
56729;DHT22;42612;52.232;7.560;2023-02-26T03:28:40;3.70;55.50
56729;DHT22;42612;52.232;7.560;2023-02-26T03:31:25;3.60;55.20
56729;DHT22;42612;52.232;7.560;2023-02-26T03:34:12;3.60;55.30
56729;DHT22;42612;52.232;7.560;2023-02-26T03:37:02;3.60;55.40
56729;DHT22;42612;52.232;7.560;2023-02-26T03:39:48;3.60;55.40
56729;DHT22;42612;52.232;7.560;2023-02-26T03:42:34;3.60;55.40
56729;DHT22;42612;52.232;7.560;2023-02-26T03:45:28;3.60;55.60
56729;DHT22;42612;52.232;7.560;2023-02-26T03:47:57;3.60;55.70
56729;DHT22;42612;52.232;7.560;2023-02-26T03:50:47;3.60;55.70
56729;DHT22;42612;52.232;7.560;2023-02-26T03:53:19;3.60;55.60
56729;DHT22;42612;52.232;7.560;2023-02-26T03:55:54;3.60;55.80
56729;DHT22;42612;52.232;7.560;2023-02-26T03:58:24;3.60;55.80
56729;DHT22;42612;52.232;7.560;2023-02-26T04:00:56;3.60;55.90
56729;DHT22;42612;52.232;7.560;2023-02-26T04:03:31;3.60;56.30
56729;DHT22;42612;52.232;7.560;2023-02-26T04:06:01;3.60;56.30
56729;DHT22;42612;52.232;7.560;2023-02-26T04:08:28;3.70;56.20
56729;DHT22;42612;52.232;7.560;2023-02-26T04:11:04;3.70;56.10
56729;DHT22;42612;52.232;7.560;2023-02-26T04:13:31;3.70;56.10
56729;DHT22;42612;52.232;7.560;2023-02-26T04:15:56;3.70;55.90
56729;DHT22;42612;52.232;7.560;2023-02-26T04:18:22;3.70;55.80
56729;DHT22;42612;52.232;7.560;2023-02-26T04:20:48;3.80;55.70
56729;DHT22;42612;52.232;7.560;2023-02-26T04:23:14;3.70;55.60
56729;DHT22;42612;52.232;7.560;2023-02-26T04:25:39;3.80;55.80
56729;DHT22;42612;52.232;7.560;2023-02-26T04:28:05;3.80;56.10
56729;DHT22;42612;52.232;7.560;2023-02-26T04:30:30;3.80;56.40
56729;DHT22;42612;52.232;7.560;2023-02-26T04:32:56;3.80;56.40
56729;DHT22;42612;52.232;7.560;2023-02-26T04:35:22;3.90;56.70
56729;DHT22;42612;52.232;7.560;2023-02-26T04:37:48;3.90;56.50
56729;DHT22;42612;52.232;7.560;2023-02-26T04:40:13;3.90;56.50
56729;DHT22;42612;52.232;7.560;2023-02-26T04:42:39;4.00;56.40
56729;DHT22;42612;52.232;7.560;2023-02-26T04:45:05;4.00;56.40
56729;DHT22;42612;52.232;7.560;2023-02-26T04:47:31;4.10;56.10
56729;DHT22;42612;52.232;7.560;2023-02-26T04:49:57;4.10;56.20
56729;DHT22;42612;52.232;7.560;2023-02-26T04:52:23;4.10;57.20
56729;DHT22;42612;52.232;7.560;2023-02-26T04:54:48;4.20;56.60
56729;DHT22;42612;52.232;7.560;2023-02-26T04:57:14;4.20;56.30
56729;DHT22;42612;52.232;7.560;2023-02-26T04:59:40;4.30;56.80
56729;DHT22;42612;52.232;7.560;2023-02-26T05:02:05;4.30;56.40
56729;DHT22;42612;52.232;7.560;2023-02-26T05:04:31;4.30;57.20
56729;DHT22;42612;52.232;7.560;2023-02-26T05:06:57;4.30;56.10
56729;DHT22;42612;52.232;7.560;2023-02-26T05:09:22;4.30;56.10
56729;DHT22;42612;52.232;7.560;2023-02-26T05:11:48;4.30;55.90
56729;DHT22;42612;52.232;7.560;2023-02-26T05:14:14;4.30;55.80
56729;DHT22;42612;52.232;7.560;2023-02-26T05:16:41;4.30;56.00
56729;DHT22;42612;52.232;7.560;2023-02-26T05:19:07;4.30;56.00
56729;DHT22;42612;52.232;7.560;2023-02-26T05:21:32;4.30;55.90
56729;DHT22;42612;52.232;7.560;2023-02-26T05:23:58;4.30;56.20
56729;DHT22;42612;52.232;7.560;2023-02-26T05:26:24;4.30;56.20
56729;DHT22;42612;52.232;7.560;2023-02-26T05:28:50;4.30;56.40
56729;DHT22;42612;52.232;7.560;2023-02-26T05:31:17;4.40;56.80
56729;DHT22;42612;52.232;7.560;2023-02-26T05:33:42;4.40;56.90
56729;DHT22;42612;52.232;7.560;2023-02-26T05:36:08;4.40;56.30
56729;DHT22;42612;52.232;7.560;2023-02-26T05:38:34;4.50;56.40
56729;DHT22;42612;52.232;7.560;2023-02-26T05:41:01;4.50;56.20
56729;DHT22;42612;52.232;7.560;2023-02-26T05:43:27;4.50;56.60
56729;DHT22;42612;52.232;7.560;2023-02-26T05:45:53;4.50;56.10
56729;DHT22;42612;52.232;7.560;2023-02-26T05:48:20;4.50;56.00
56729;DHT22;42612;52.232;7.560;2023-02-26T05:50:48;4.50;55.90
56729;DHT22;42612;52.232;7.560;2023-02-26T05:53:15;4.40;55.80
56729;DHT22;42612;52.232;7.560;2023-02-26T05:55:41;4.50;55.70
56729;DHT22;42612;52.232;7.560;2023-02-26T05:58:07;4.40;55.60
56729;DHT22;42612;52.232;7.560;2023-02-26T06:00:32;4.40;55.50
56729;DHT22;42612;52.232;7.560;2023-02-26T06:02:58;4.30;55.50
56729;DHT22;42612;52.232;7.560;2023-02-26T06:05:24;4.20;55.70
56729;DHT22;42612;52.232;7.560;2023-02-26T06:07:50;4.20;55.80
56729;DHT22;42612;52.232;7.560;2023-02-26T06:10:15;4.20;55.70
56729;DHT22;42612;52.232;7.560;2023-02-26T06:12:41;4.20;55.60
56729;DHT22;42612;52.232;7.560;2023-02-26T06:15:08;4.10;55.60
56729;DHT22;42612;52.232;7.560;2023-02-26T06:17:35;4.10;55.60
56729;DHT22;42612;52.232;7.560;2023-02-26T06:20:01;4.00;55.40
56729;DHT22;42612;52.232;7.560;2023-02-26T06:22:28;3.90;55.30
56729;DHT22;42612;52.232;7.560;2023-02-26T06:24:54;3.90;55.40
56729;DHT22;42612;52.232;7.560;2023-02-26T06:27:20;3.80;55.60
56729;DHT22;42612;52.232;7.560;2023-02-26T06:29:46;3.80;55.60
56729;DHT22;42612;52.232;7.560;2023-02-26T06:32:12;3.70;55.60
56729;DHT22;42612;52.232;7.560;2023-02-26T06:34:38;3.70;55.70
56729;DHT22;42612;52.232;7.560;2023-02-26T06:37:04;3.70;56.40
56729;DHT22;42612;52.232;7.560;2023-02-26T06:39:29;3.70;55.80
56729;DHT22;42612;52.232;7.560;2023-02-26T06:41:55;3.60;55.80
56729;DHT22;42612;52.232;7.560;2023-02-26T06:44:21;3.60;56.10
56729;DHT22;42612;52.232;7.560;2023-02-26T06:46:46;3.60;56.60
56729;DHT22;42612;52.232;7.560;2023-02-26T06:49:12;3.60;57.00
56729;DHT22;42612;52.232;7.560;2023-02-26T06:51:38;3.60;57.00
56729;DHT22;42612;52.232;7.560;2023-02-26T06:54:03;3.70;56.80
56729;DHT22;42612;52.232;7.560;2023-02-26T06:56:29;3.70;56.80
56729;DHT22;42612;52.232;7.560;2023-02-26T06:58:55;3.80;56.80
56729;DHT22;42612;52.232;7.560;2023-02-26T07:01:20;3.80;56.90
56729;DHT22;42612;52.232;7.560;2023-02-26T07:03:46;3.80;56.90
56729;DHT22;42612;52.232;7.560;2023-02-26T07:06:12;3.80;56.80
56729;DHT22;42612;52.232;7.560;2023-02-26T07:08:38;3.80;56.90
56729;DHT22;42612;52.232;7.560;2023-02-26T07:11:04;3.90;57.00
56729;DHT22;42612;52.232;7.560;2023-02-26T07:13:30;3.90;56.90
56729;DHT22;42612;52.232;7.560;2023-02-26T07:15:56;3.90;56.90
56729;DHT22;42612;52.232;7.560;2023-02-26T07:18:22;4.00;56.90
56729;DHT22;42612;52.232;7.560;2023-02-26T07:20:49;4.00;56.90
56729;DHT22;42612;52.232;7.560;2023-02-26T07:23:15;4.00;57.20
56729;DHT22;42612;52.232;7.560;2023-02-26T07:25:41;4.00;57.30
56729;DHT22;42612;52.232;7.560;2023-02-26T07:28:06;4.10;57.20
56729;DHT22;42612;52.232;7.560;2023-02-26T07:30:32;4.10;57.30
56729;DHT22;42612;52.232;7.560;2023-02-26T07:32:58;4.20;57.60
56729;DHT22;42612;52.232;7.560;2023-02-26T07:35:24;4.20;57.70
56729;DHT22;42612;52.232;7.560;2023-02-26T07:37:50;4.30;58.40
56729;DHT22;42612;52.232;7.560;2023-02-26T07:40:17;4.40;58.20
56729;DHT22;42612;52.232;7.560;2023-02-26T07:42:43;4.40;57.60
56729;DHT22;42612;52.232;7.560;2023-02-26T07:45:09;4.40;57.10
56729;DHT22;42612;52.232;7.560;2023-02-26T07:47:35;4.50;57.00
56729;DHT22;42612;52.232;7.560;2023-02-26T07:50:01;4.50;56.80
56729;DHT22;42612;52.232;7.560;2023-02-26T07:52:27;4.40;56.50
56729;DHT22;42612;52.232;7.560;2023-02-26T07:54:53;4.40;56.40
56729;DHT22;42612;52.232;7.560;2023-02-26T07:57:19;4.40;56.40
56729;DHT22;42612;52.232;7.560;2023-02-26T07:59:45;4.30;56.40
56729;DHT22;42612;52.232;7.560;2023-02-26T08:02:12;4.30;56.50
56729;DHT22;42612;52.232;7.560;2023-02-26T08:04:38;4.30;56.80
56729;DHT22;42612;52.232;7.560;2023-02-26T08:07:04;4.30;56.90
56729;DHT22;42612;52.232;7.560;2023-02-26T08:09:29;4.30;57.00
56729;DHT22;42612;52.232;7.560;2023-02-26T08:11:56;4.30;57.10
56729;DHT22;42612;52.232;7.560;2023-02-26T08:14:22;4.30;56.90
56729;DHT22;42612;52.232;7.560;2023-02-26T08:16:48;4.30;57.20
56729;DHT22;42612;52.232;7.560;2023-02-26T08:19:13;4.30;58.50
56729;DHT22;42612;52.232;7.560;2023-02-26T08:21:39;4.40;57.20
56729;DHT22;42612;52.232;7.560;2023-02-26T08:24:05;4.40;57.40
56729;DHT22;42612;52.232;7.560;2023-02-26T08:26:34;4.40;57.50
56729;DHT22;42612;52.232;7.560;2023-02-26T08:29:01;4.50;57.20
56729;DHT22;42612;52.232;7.560;2023-02-26T08:31:27;4.50;57.00
56729;DHT22;42612;52.232;7.560;2023-02-26T08:33:53;4.60;56.90
56729;DHT22;42612;52.232;7.560;2023-02-26T08:36:19;4.60;56.90
56729;DHT22;42612;52.232;7.560;2023-02-26T08:38:46;4.70;57.10
56729;DHT22;42612;52.232;7.560;2023-02-26T08:41:12;4.70;57.20
56729;DHT22;42612;52.232;7.560;2023-02-26T08:43:38;4.70;57.00
56729;DHT22;42612;52.232;7.560;2023-02-26T08:46:04;4.80;56.90
56729;DHT22;42612;52.232;7.560;2023-02-26T08:48:30;4.80;56.60
56729;DHT22;42612;52.232;7.560;2023-02-26T08:50:56;4.90;56.50
56729;DHT22;42612;52.232;7.560;2023-02-26T08:53:22;4.90;57.00
56729;DHT22;42612;52.232;7.560;2023-02-26T08:55:49;5.00;57.60
56729;DHT22;42612;52.232;7.560;2023-02-26T08:58:15;5.10;57.00
56729;DHT22;42612;52.232;7.560;2023-02-26T09:00:41;5.20;56.80
56729;DHT22;42612;52.232;7.560;2023-02-26T09:03:07;5.20;57.00
56729;DHT22;42612;52.232;7.560;2023-02-26T09:05:33;5.30;56.80
56729;DHT22;42612;52.232;7.560;2023-02-26T09:07:59;5.30;56.30
56729;DHT22;42612;52.232;7.560;2023-02-26T09:10:24;5.40;56.20
56729;DHT22;42612;52.232;7.560;2023-02-26T09:12:50;5.40;55.90
56729;DHT22;42612;52.232;7.560;2023-02-26T09:15:16;5.50;55.40
56729;DHT22;42612;52.232;7.560;2023-02-26T09:17:42;5.50;55.80
56729;DHT22;42612;52.232;7.560;2023-02-26T09:20:09;5.50;56.70
56729;DHT22;42612;52.232;7.560;2023-02-26T09:22:36;5.60;56.20
56729;DHT22;42612;52.232;7.560;2023-02-26T09:25:03;5.60;56.20
56729;DHT22;42612;52.232;7.560;2023-02-26T09:27:29;5.70;56.30
56729;DHT22;42612;52.232;7.560;2023-02-26T09:29:55;5.70;56.10
56729;DHT22;42612;52.232;7.560;2023-02-26T09:32:20;5.80;56.00
56729;DHT22;42612;52.232;7.560;2023-02-26T09:34:46;5.80;56.50
56729;DHT22;42612;52.232;7.560;2023-02-26T09:37:12;5.90;56.50
56729;DHT22;42612;52.232;7.560;2023-02-26T09:39:37;6.00;56.40
56729;DHT22;42612;52.232;7.560;2023-02-26T09:45:36;6.20;54.50
56729;DHT22;42612;52.232;7.560;2023-02-26T09:48:04;6.20;53.80
56729;DHT22;42612;52.232;7.560;2023-02-26T09:50:38;6.30;54.30
56729;DHT22;42612;52.232;7.560;2023-02-26T09:55:48;6.40;53.40
56729;DHT22;42612;52.232;7.560;2023-02-26T09:58:20;6.50;54.00
56729;DHT22;42612;52.232;7.560;2023-02-26T10:01:04;6.50;53.90
56729;DHT22;42612;52.232;7.560;2023-02-26T10:04:21;6.60;53.50
56729;DHT22;42612;52.232;7.560;2023-02-26T10:10:06;6.80;54.00
56729;DHT22;42612;52.232;7.560;2023-02-26T10:12:43;6.90;54.30
56729;DHT22;42612;52.232;7.560;2023-02-26T10:15:23;7.00;54.10
56729;DHT22;42612;52.232;7.560;2023-02-26T10:18:05;7.10;52.30
56729;DHT22;42612;52.232;7.560;2023-02-26T10:20:54;7.20;53.30
56729;DHT22;42612;52.232;7.560;2023-02-26T10:23:30;7.20;52.20
56729;DHT22;42612;52.232;7.560;2023-02-26T10:26:17;7.30;53.40
56729;DHT22;42612;52.232;7.560;2023-02-26T10:32:33;7.40;52.90
56729;DHT22;42612;52.232;7.560;2023-02-26T10:35:04;7.40;52.20
56729;DHT22;42612;52.232;7.560;2023-02-26T10:38:31;7.50;53.10
56729;DHT22;42612;52.232;7.560;2023-02-26T10:40:48;7.60;52.40
56729;DHT22;42612;52.232;7.560;2023-02-26T10:43:43;7.70;51.70
56729;DHT22;42612;52.232;7.560;2023-02-26T10:47:03;7.70;52.40
56729;DHT22;42612;52.232;7.560;2023-02-26T10:49:58;7.80;51.10
56729;DHT22;42612;52.232;7.560;2023-02-26T10:52:31;7.80;50.00
56729;DHT22;42612;52.232;7.560;2023-02-26T10:58:22;7.90;50.80
56729;DHT22;42612;52.232;7.560;2023-02-26T11:00:52;8.00;49.90
56729;DHT22;42612;52.232;7.560;2023-02-26T11:03:43;8.00;51.40
56729;DHT22;42612;52.232;7.560;2023-02-26T11:06:17;8.10;50.60
56729;DHT22;42612;52.232;7.560;2023-02-26T11:08:48;8.30;51.20
56729;DHT22;42612;52.232;7.560;2023-02-26T11:14:01;8.50;51.80
56729;DHT22;42612;52.232;7.560;2023-02-26T11:16:28;8.60;51.80
56729;DHT22;42612;52.232;7.560;2023-02-26T11:18:54;8.70;50.60
56729;DHT22;42612;52.232;7.560;2023-02-26T11:21:26;8.70;51.00
56729;DHT22;42612;52.232;7.560;2023-02-26T11:24:06;8.70;51.10
56729;DHT22;42612;52.232;7.560;2023-02-26T11:26:34;8.70;50.00
56729;DHT22;42612;52.232;7.560;2023-02-26T11:29:01;8.70;49.90
56729;DHT22;42612;52.232;7.560;2023-02-26T11:31:27;8.60;50.10
56729;DHT22;42612;52.232;7.560;2023-02-26T11:34:01;8.60;50.10
56729;DHT22;42612;52.232;7.560;2023-02-26T11:36:31;8.50;48.90
56729;DHT22;42612;52.232;7.560;2023-02-26T11:39:05;8.40;50.00
56729;DHT22;42612;52.232;7.560;2023-02-26T11:41:44;8.40;49.10
56729;DHT22;42612;52.232;7.560;2023-02-26T11:44:14;8.40;49.50
56729;DHT22;42612;52.232;7.560;2023-02-26T11:46:46;8.40;50.70
56729;DHT22;42612;52.232;7.560;2023-02-26T11:49:20;8.50;50.70
56729;DHT22;42612;52.232;7.560;2023-02-26T11:52:04;8.50;51.20
56729;DHT22;42612;52.232;7.560;2023-02-26T11:54:40;8.70;50.40
56729;DHT22;42612;52.232;7.560;2023-02-26T11:57:24;8.90;50.80
56729;DHT22;42612;52.232;7.560;2023-02-26T11:59:53;9.00;49.10
56729;DHT22;42612;52.232;7.560;2023-02-26T12:02:21;9.10;50.00
56729;DHT22;42612;52.232;7.560;2023-02-26T12:04:51;9.20;49.80
56729;DHT22;42612;52.232;7.560;2023-02-26T12:07:20;9.30;49.70
56729;DHT22;42612;52.232;7.560;2023-02-26T12:09:46;9.40;49.60
56729;DHT22;42612;52.232;7.560;2023-02-26T12:20:39;9.60;47.60
56729;DHT22;42612;52.232;7.560;2023-02-26T12:23:40;9.70;49.00
56729;DHT22;42612;52.232;7.560;2023-02-26T12:26:25;9.70;48.10
56729;DHT22;42612;52.232;7.560;2023-02-26T12:31:41;9.90;48.80
56729;DHT22;42612;52.232;7.560;2023-02-26T12:34:33;10.10;49.30
56729;DHT22;42612;52.232;7.560;2023-02-26T12:40:31;10.40;47.40
56729;DHT22;42612;52.232;7.560;2023-02-26T12:46:40;10.60;47.90
56729;DHT22;42612;52.232;7.560;2023-02-26T12:50:23;10.80;48.00
56729;DHT22;42612;52.232;7.560;2023-02-26T12:56:28;11.00;48.30
56729;DHT22;42612;52.232;7.560;2023-02-26T13:02:28;11.10;47.10
56729;DHT22;42612;52.232;7.560;2023-02-26T13:08:04;11.10;46.70
56729;DHT22;42612;52.232;7.560;2023-02-26T13:17:26;10.80;46.20
56729;DHT22;42612;52.232;7.560;2023-02-26T13:20:18;10.80;46.30
56729;DHT22;42612;52.232;7.560;2023-02-26T13:22:52;10.90;46.60
56729;DHT22;42612;52.232;7.560;2023-02-26T13:25:47;10.90;47.60
56729;DHT22;42612;52.232;7.560;2023-02-26T13:31:32;11.20;46.70
56729;DHT22;42612;52.232;7.560;2023-02-26T13:34:05;11.40;45.80
56729;DHT22;42612;52.232;7.560;2023-02-26T13:36:36;11.50;46.30
56729;DHT22;42612;52.232;7.560;2023-02-26T13:39:20;11.60;46.40
56729;DHT22;42612;52.232;7.560;2023-02-26T13:48:00;11.70;42.70
56729;DHT22;42612;52.232;7.560;2023-02-26T13:51:01;11.70;44.20
56729;DHT22;42612;52.232;7.560;2023-02-26T13:53:41;11.70;44.00
56729;DHT22;42612;52.232;7.560;2023-02-26T13:56:16;11.70;45.60
56729;DHT22;42612;52.232;7.560;2023-02-26T13:59:37;11.80;45.90
56729;DHT22;42612;52.232;7.560;2023-02-26T14:01:57;11.90;45.60
56729;DHT22;42612;52.232;7.560;2023-02-26T14:04:58;12.00;44.90
56729;DHT22;42612;52.232;7.560;2023-02-26T14:07:45;12.20;44.80
56729;DHT22;42612;52.232;7.560;2023-02-26T14:10:46;12.30;44.40
56729;DHT22;42612;52.232;7.560;2023-02-26T14:13:37;12.40;43.60
56729;DHT22;42612;52.232;7.560;2023-02-26T14:16:22;12.50;45.30
56729;DHT22;42612;52.232;7.560;2023-02-26T14:18:50;12.60;44.80
56729;DHT22;42612;52.232;7.560;2023-02-26T14:21:27;12.70;45.50
56729;DHT22;42612;52.232;7.560;2023-02-26T14:24:24;12.80;43.10
56729;DHT22;42612;52.232;7.560;2023-02-26T14:32:44;12.20;41.50
56729;DHT22;42612;52.232;7.560;2023-02-26T14:35:26;11.90;43.90
56729;DHT22;42612;52.232;7.560;2023-02-26T14:43:58;11.70;44.80
56729;DHT22;42612;52.232;7.560;2023-02-26T14:46:26;11.80;45.20
56729;DHT22;42612;52.232;7.560;2023-02-26T14:48:52;11.90;45.70
56729;DHT22;42612;52.232;7.560;2023-02-26T14:51:28;12.00;45.00
56729;DHT22;42612;52.232;7.560;2023-02-26T14:59:48;11.90;44.10
56729;DHT22;42612;52.232;7.560;2023-02-26T15:08:09;11.50;44.70
56729;DHT22;42612;52.232;7.560;2023-02-26T15:10:47;11.50;44.30
56729;DHT22;42612;52.232;7.560;2023-02-26T15:19:39;11.70;44.80
56729;DHT22;42612;52.232;7.560;2023-02-26T15:22:28;11.70;43.90
56729;DHT22;42612;52.232;7.560;2023-02-26T15:24:58;11.70;43.50
56729;DHT22;42612;52.232;7.560;2023-02-26T15:27:29;11.60;43.60
56729;DHT22;42612;52.232;7.560;2023-02-26T15:29:56;11.60;43.40
56729;DHT22;42612;52.232;7.560;2023-02-26T15:32:28;11.50;44.00
56729;DHT22;42612;52.232;7.560;2023-02-26T15:35:13;11.40;44.10
56729;DHT22;42612;52.232;7.560;2023-02-26T15:37:58;11.40;44.40
56729;DHT22;42612;52.232;7.560;2023-02-26T15:40:28;11.50;44.40
56729;DHT22;42612;52.232;7.560;2023-02-26T15:42:57;11.60;44.70
56729;DHT22;42612;52.232;7.560;2023-02-26T15:50:42;11.70;44.40
56729;DHT22;42612;52.232;7.560;2023-02-26T15:53:37;11.80;44.20
56729;DHT22;42612;52.232;7.560;2023-02-26T15:56:13;11.80;42.70
56729;DHT22;42612;52.232;7.560;2023-02-26T15:59:08;11.70;43.10
56729;DHT22;42612;52.232;7.560;2023-02-26T16:01:48;11.60;42.30
56729;DHT22;42612;52.232;7.560;2023-02-26T16:04:16;11.50;43.50
56729;DHT22;42612;52.232;7.560;2023-02-26T16:06:46;11.40;43.50
56729;DHT22;42612;52.232;7.560;2023-02-26T16:09:27;11.20;43.40
56729;DHT22;42612;52.232;7.560;2023-02-26T16:11:57;11.20;42.60
56729;DHT22;42612;52.232;7.560;2023-02-26T16:14:30;11.20;43.80
56729;DHT22;42612;52.232;7.560;2023-02-26T16:16:57;11.10;43.80
56729;DHT22;42612;52.232;7.560;2023-02-26T16:19:32;11.10;44.10
56729;DHT22;42612;52.232;7.560;2023-02-26T16:22:19;11.00;43.40
56729;DHT22;42612;52.232;7.560;2023-02-26T16:24:59;11.00;44.10
56729;DHT22;42612;52.232;7.560;2023-02-26T16:27:28;11.00;43.80
56729;DHT22;42612;52.232;7.560;2023-02-26T16:29:56;11.00;44.10
56729;DHT22;42612;52.232;7.560;2023-02-26T16:32:25;11.00;43.80
56729;DHT22;42612;52.232;7.560;2023-02-26T16:34:55;10.90;44.50
56729;DHT22;42612;52.232;7.560;2023-02-26T16:37:26;10.90;44.70
56729;DHT22;42612;52.232;7.560;2023-02-26T16:40:29;10.90;45.00
56729;DHT22;42612;52.232;7.560;2023-02-26T16:43:48;10.90;43.60
56729;DHT22;42612;52.232;7.560;2023-02-26T16:46:05;10.90;43.80
56729;DHT22;42612;52.232;7.560;2023-02-26T16:48:54;10.80;44.70
56729;DHT22;42612;52.232;7.560;2023-02-26T16:51:26;10.80;43.70
56729;DHT22;42612;52.232;7.560;2023-02-26T16:53:58;10.80;45.10
56729;DHT22;42612;52.232;7.560;2023-02-26T16:56:31;10.70;44.70
56729;DHT22;42612;52.232;7.560;2023-02-26T16:59:12;10.70;44.30
56729;DHT22;42612;52.232;7.560;2023-02-26T17:01:58;10.60;44.10
56729;DHT22;42612;52.232;7.560;2023-02-26T17:04:29;10.60;44.50
56729;DHT22;42612;52.232;7.560;2023-02-26T17:06:57;10.50;45.20
56729;DHT22;42612;52.232;7.560;2023-02-26T17:09:40;10.50;45.80
56729;DHT22;42612;52.232;7.560;2023-02-26T17:14:56;10.40;46.20
56729;DHT22;42612;52.232;7.560;2023-02-26T17:17:23;10.40;46.20
56729;DHT22;42612;52.232;7.560;2023-02-26T17:19:49;10.40;46.10
56729;DHT22;42612;52.232;7.560;2023-02-26T17:22:17;10.30;45.90
56729;DHT22;42612;52.232;7.560;2023-02-26T17:24:46;10.30;45.50
56729;DHT22;42612;52.232;7.560;2023-02-26T17:27:16;10.20;45.40
56729;DHT22;42612;52.232;7.560;2023-02-26T17:29:48;10.20;45.30
56729;DHT22;42612;52.232;7.560;2023-02-26T17:32:25;10.10;45.30
56729;DHT22;42612;52.232;7.560;2023-02-26T17:34:52;10.00;45.10
56729;DHT22;42612;52.232;7.560;2023-02-26T17:37:19;9.90;45.50
56729;DHT22;42612;52.232;7.560;2023-02-26T17:39:45;9.80;45.60
56729;DHT22;42612;52.232;7.560;2023-02-26T17:42:13;9.80;46.40
56729;DHT22;42612;52.232;7.560;2023-02-26T17:44:41;9.70;46.20
56729;DHT22;42612;52.232;7.560;2023-02-26T17:47:43;9.70;46.10
56729;DHT22;42612;52.232;7.560;2023-02-26T17:50:45;9.60;45.60
56729;DHT22;42612;52.232;7.560;2023-02-26T17:53:15;9.60;45.70
56729;DHT22;42612;52.232;7.560;2023-02-26T17:55:42;9.50;46.20
56729;DHT22;42612;52.232;7.560;2023-02-26T17:58:16;9.50;46.10
56729;DHT22;42612;52.232;7.560;2023-02-26T18:00:45;9.50;47.10
56729;DHT22;42612;52.232;7.560;2023-02-26T18:03:14;9.40;46.50
56729;DHT22;42612;52.232;7.560;2023-02-26T18:05:40;9.40;46.30
56729;DHT22;42612;52.232;7.560;2023-02-26T18:08:33;9.30;46.30
56729;DHT22;42612;52.232;7.560;2023-02-26T18:11:00;9.30;45.60
56729;DHT22;42612;52.232;7.560;2023-02-26T18:13:28;9.20;46.50
56729;DHT22;42612;52.232;7.560;2023-02-26T18:15:56;9.10;46.60
56729;DHT22;42612;52.232;7.560;2023-02-26T18:18:24;9.10;46.40
56729;DHT22;42612;52.232;7.560;2023-02-26T18:20:51;9.00;46.90
56729;DHT22;42612;52.232;7.560;2023-02-26T18:23:17;8.90;47.40
56729;DHT22;42612;52.232;7.560;2023-02-26T18:25:45;8.90;47.30
56729;DHT22;42612;52.232;7.560;2023-02-26T18:28:24;8.90;47.80
56729;DHT22;42612;52.232;7.560;2023-02-26T18:30:52;8.90;47.10
56729;DHT22;42612;52.232;7.560;2023-02-26T18:33:18;8.90;46.90
56729;DHT22;42612;52.232;7.560;2023-02-26T18:35:46;8.90;47.50
56729;DHT22;42612;52.232;7.560;2023-02-26T18:38:17;8.90;47.20
56729;DHT22;42612;52.232;7.560;2023-02-26T18:40:45;8.80;47.00